Jerico, Iowa
Current Conditions -  °F | °C
As of 3:15 AM on Friday 31 Oct 2014 (Local Time) from KCCY Reporting Station
Clear Clear  
Wind Chill: 18°   Ceiling: Unl
Heat Index: 30°   Visibility: 10mi
Dew Point: 14°   Wind: 18mph
Humidity: 51%   Direction: 350°N
Pressure: 30.35"   Gusts: 29mph
Location:  43.0559°N, 92.3113°W
Report Text: KCCY 310815Z AUTO 35016G25KT 10SM CLR M01/M10 A3035 RMK AO2
Loading
Personal Weather Stations






























Interactive Weather Map
Tropical Storm Tracking
New forecast layout! Learn more

10-Day Weather Forecast

Advertisements
Track Severe Weather on mobile